Lafitte, Louisiana
Current Conditions -  °F | °C
As of 8:55 PM on Monday 26 Jan 2015 (Local Time) from KNBG Reporting Station
Few Clouds Few Clouds  
Wind Chill: 45°   Ceiling: Unl
Heat Index: 47°   Visibility: 10mi
Dew Point: 35°   Wind: 5mph
Humidity: 63%   Direction: 250°WSW
Pressure: 30.1"   Gusts: NA
Location:  29.68°N, 90.1°W
Report Text: KNBG 270255Z 25004KT 10SM FEW250 08/02 A3010 RMK AO2 SLP191 T00830017 50005 $
Loading
Personal Weather Stations






























Interactive Weather Map New forecast layout! Learn more

10-Day Weather Forecast

Advertisements
Track Severe Weather on mobile